Phoenix, AZ (85062)

7:44 PM MST on September 20, 2014 (GMT -0700)
AZCC | Change Station
CLOSE
Current Station
Personal Weather Station
Location: Phoenix, AZ
Elevation: 1270 ft
Nearby Weather Stations

Elev 1270 ft 33.48 °N, 111.95 °W | Updated 15 seconds ago

Mostly Cloudy
Mostly Cloudy
85.3 °F
Feels Like 89 °F
N
0.4
Wind Variable Wind from ESE
Gusts 1.1 mph

Today
High -- | Low -- °F
--% Chance of Precip.
Yesterday
High -- | Low -- °F
Precip. -- in
6:14 AM 6:27 PM
Waning Crescent, 9% visible
Pressure 29.73 in
Visibility 10.0 miles
Clouds Scattered Clouds 7000 ft
Scattered Clouds 15000 ft
Mostly Cloudy 19000 ft
Mostly Cloudy 25000 ft
Heat Index 89 °F
Dew Point 68 °F
Humidity 57%
Rainfall 0.02 in
Snow Depth 0 in , 0 in , 0 in
UV 0 out of 12
Pollen 6.80 out of 12
PM2.5 Good
Flu Activity Not available.
METAR KPHX 210151Z 00000KT 10SM SCT070 SCT150 BKN190 BKN250 34/18 A2979 RMK AO2 SLP067 CB DSNT NE T03390178

More Conditions Fewer Conditions

Pressure 29.73 in
Visibility 10.0 miles
Clouds Scattered Clouds 7000 ft
Scattered Clouds 15000 ft
Mostly Cloudy 19000 ft
Mostly Cloudy 25000 ft
Heat Index 89 °F
Dew Point 68 °F
Humidity 57%
Rainfall 0.02 in
Snow Depth 0 in , 0 in , 0 in
UV 0 out of 12
Pollen 6.80 out of 12
PM2.5 Good
Flu Activity Not available.
METAR KPHX 210151Z 00000KT 10SM SCT070 SCT150 BKN190 BKN250 34/18 A2979 RMK AO2 SLP067 CB DSNT NE T03390178

More Conditions Fewer Conditions

10-Day Weather Forecast

Almanac

Astronomy

Sep. 20, 2014 Rise Set
Actual Time 6:14 AM MST 6:27 PM MST
Civil Twilight 5:49 AM MST 6:52 PM MST
Nautical Twilight 5:20 AM MST 7:21 PM MST
Astronomical Twilight 4:51 AM MST 7:50 PM MST
Moon 3:05 AM MST (9/20) 4:26 PM MST (9/20)
Length of Visible Light 13h 02m
Length of Day
12h 12m
Tomorrow will be 2m 3s shorter.
Waning Crescent, 9% of the Moon is Illuminated
Today
Waning Crescent
Sep 24
New
Oct 1
First Quarter
Oct 8
Full
Oct 15
Last Quarter

Today's Extremes

State Highs State Lows

Community

WunderPhotos

Upload Photos

1,755,066 photos uploaded!

WunderBlogs® & News

Nearby

Air Quality

  Air Quality AQ Index Pollutant
Yesterday Good
OZONE
Yesterday Good
PM10
Current Good
PM2.5
Saturday Moderate
OZONE
Saturday Good
PM10
Saturday Good
CO
Sunday Moderate
OZONE
Sunday Good
PM10
Sunday Good
CO

Snow Depth

Station Depth Elevation
Workman Creek 0 in 6900 ft
Snowslide Canyon 0 in 9730 ft
Maverick Fork 0 in 9200 ft
Beaver Head 0 in 7990 ft

Earthquake Activity

City Distance Mag. Time & Date
No recent earthquake activity has been reported nearby.
Minimum magnitude displayed is 2.5.

Coastal Water Temperatures

Place Temperature
No Stations Reporting

Nearby Weather Stations